Aérodrome :
LOGIN :

S'inscrire | Disclaimer

   EN    FR    IT 

 










Légende :    VFR   VFR Marginal   IFR   IFR Intensif   IFR Très Intensif
Visi : 
Plafond : 
>= 8 km
>= 3000ft
5 à 8 km
1000 à 3000 ft
1500m à 5 km
500 à 1000 ft
800 à 1500m
200 à 500 ft
< 800m
< 200 ft
Symboles :   Orages  Brouillard  Fortes neiges  Fortes précipitations  Vent > 20 kt
SIGMETs :   Divers  Orages  Givrage  Turbulence  Onde Orograph.  Cendres Volcan.







- Altitude de l'aérodrome : 42 ft
- Code IATA : KGD


UMKK - Khrabrava - Kaliningrad

DERNIER METAR :
  • 220730Z 13005MPS 100V170 9999 SCT016 11/07 Q1025 R24/60D NOSIG RMK QFE768/1024

METARs EXPIRÉS :
  • 220700Z 12005MPS 090V150 9999 SCT015 10/07 Q1025 R24/60D NOSIG RMK QFE767/1023
  • 220630Z 12004MPS 090V150 CAVOK 10/06 Q1025 R24/60D NOSIG RMK QFE767/1023
  • 220600Z 12004MPS CAVOK 08/06 Q1025 R24/CLRD60 NOSIG RMK QFE767/1023
  • 220530Z 11003MPS CAVOK 07/05 Q1024 R24/CLRD60 NOSIG RMK QFE767/1023
  • 220500Z 11003MPS 9999 NSC 06/05 Q1024 R24/CLRD60 NOSIG RMK QFE767/1023

TAF TAF UMKK
Valide du 22 à 06h jusqu'au 23 à 06h UTC


220458Z 2206/2306 12006G11MPS CAVOK
TEMPO 2209/2215 14008G13MPS
BECMG 2217/2219 10005MPS
BECMG 2221/2223 12005MPS



MET'MAP, la Météo Aéronautique d'un coup d'oeil ! - Copyright ORBIFLY Décembre 2007 - Disclaimer

ORBIFLY MET'MAP TEAM :

Programmation & Développement : Alexandra Zaïnal
Conception & Développement : Baudouin d'Aumeries
Co-Programmation & Développement : Marc-Olivier Méhu
Soutien technique & logistique : Manuel Goepfert

Contact : metmap@orbifly.com




SOURCES & CREDITS :

   NOAA